Time;durP1;ratioP1;P1;durP2;ratioP2;P2;SDS_P1;SDS_P2;PMS_P1;PMS_P2;Temp;Humidity;BMP_temperature;BMP_pressure;BME280_temperature;BME280_humidity;BME280_pressure;Samples;Min_cycle;Max_cycle;Signal;HPM_P1;HPM_P2
2023/02/06 00:00:22;;;;;;;;;;;;;;;0.75;100.00;98408.25;5096827;28;20321;-75
2023/02/06 00:02:50;;;;;;;;;;;;;;;0.74;100.00;98403.22;5097471;28;20409;-74
2023/02/06 00:05:16;;;;;;;;;;;;;;;0.72;100.00;98413.66;5097084;28;19961;-75
2023/02/06 00:07:42;;;;;;;;;;;;;;;0.73;100.00;98420.47;5096601;28;19956;-74
2023/02/06 00:10:08;;;;;;;;;;;;;;;0.74;100.00;98419.53;5077851;28;19951;-74
2023/02/06 00:12:34;;;;;;;;;;;;;;;0.75;100.00;98420.34;5096639;28;19959;-74
2023/02/06 00:15:00;;;;;;;;;;;;;;;0.76;100.00;98427.19;5096711;28;20411;-74
2023/02/06 00:17:26;;;;;;;;;;;;;;;0.78;100.00;98427.91;5096565;28;19961;-74
2023/02/06 00:19:52;;;;;;;;;;;;;;;0.80;100.00;98424.28;5096696;28;19958;-74
2023/02/06 00:22:18;;;;;;;;;;;;;;;0.81;100.00;98432.84;5096597;28;20003;-74
2023/02/06 00:24:43;;;;;;;;;;;;;;;0.84;100.00;98427.47;5095275;28;19950;-75
2023/02/06 00:27:09;;;;;;;;;;;;;;;0.86;100.00;98419.59;5096569;28;19954;-74
2023/02/06 00:29:35;;;;;;;;;;;;;;;0.84;100.00;98427.47;5096565;28;19951;-75
2023/02/06 00:32:01;;;;;;;;;;;;;;;0.83;100.00;98427.59;5096543;28;20024;-74
2023/02/06 00:34:27;;;;;;;;;;;;;;;0.82;100.00;98413.84;5096365;28;20070;-75
2023/02/06 00:36:53;;;;;;;;;;;;;;;0.83;100.00;98417.25;5096319;28;19948;-74
2023/02/06 00:39:19;;;;;;;;;;;;;;;0.82;100.00;98413.84;5096303;28;19955;-74
2023/02/06 00:41:44;;;;;;;;;;;;;;;0.82;100.00;98408.69;5096052;28;19994;-74
2023/02/06 00:44:10;;;;;;;;;;;;;;;0.80;100.00;98403.63;5096694;28;19988;-74
2023/02/06 00:46:36;;;;;;;;;;;;;;;0.78;100.00;98402.91;5096100;28;20006;-74
2023/02/06 00:49:02;;;;;;;;;;;;;;;0.78;100.00;98404.66;5096102;28;19957;-74
2023/02/06 00:51:28;;;;;;;;;;;;;;;0.82;100.00;98406.09;5095942;28;20307;-74
2023/02/06 00:53:54;;;;;;;;;;;;;;;0.85;100.00;98402.47;5095329;28;19968;-75
2023/02/06 00:56:20;;;;;;;;;;;;;;;0.88;100.00;98397.06;5095873;28;19944;-74
2023/02/06 00:58:46;;;;;;;;;;;;;;;0.88;100.00;98399.66;5096025;28;19952;-74
2023/02/06 01:01:12;;;;;;;;;;;;;;;0.87;100.00;98392.84;5096244;28;19944;-75
2023/02/06 01:03:38;;;;;;;;;;;;;;;0.87;100.00;98398.84;5095789;28;19961;-75
2023/02/06 01:06:04;;;;;;;;;;;;;;;0.84;100.00;98403.38;5095963;28;19954;-74
2023/02/06 01:08:29;;;;;;;;;;;;;;;0.81;100.00;98402.66;5095590;28;19949;-75
2023/02/06 01:10:55;;;;;;;;;;;;;;;0.84;100.00;98403.38;5095662;28;20021;-74
2023/02/06 01:13:21;;;;;;;;;;;;;;;0.86;100.00;98406.69;5096128;28;19969;-74
2023/02/06 01:15:47;;;;;;;;;;;;;;;0.88;100.00;98410.81;5095674;28;19992;-74
2023/02/06 01:18:13;;;;;;;;;;;;;;;0.90;100.00;98410.72;5095620;28;20435;-74
2023/02/06 01:20:39;;;;;;;;;;;;;;;0.89;100.00;98409.88;5077630;28;19956;-74
2023/02/06 01:23:05;;;;;;;;;;;;;;;0.89;100.00;98406.50;5095281;28;19945;-75
2023/02/06 01:25:31;;;;;;;;;;;;;;;0.90;100.00;98413.28;5095284;28;20026;-74
2023/02/06 01:27:57;;;;;;;;;;;;;;;0.90;100.00;98408.13;5095477;28;19961;-74
2023/02/06 01:30:23;;;;;;;;;;;;;;;0.91;100.00;98412.38;5094810;28;20314;-75
2023/02/06 01:32:49;;;;;;;;;;;;;;;0.93;100.00;98415.66;5095353;28;19953;-74
2023/02/06 01:35:14;;;;;;;;;;;;;;;0.94;100.00;98415.53;5095071;28;19964;-75
2023/02/06 01:37:40;;;;;;;;;;;;;;;0.97;100.00;98423.09;5077270;28;19950;-74
2023/02/06 01:40:08;;;;;;;;;;;;;;;0.99;100.00;98417.81;5095431;28;19956;-75
2023/02/06 01:42:34;;;;;;;;;;;;;;;1.00;100.00;98416.88;5094618;28;19974;-74
2023/02/06 01:45:19;;;;;;;;;;;;;;;1.02;100.00;98408.06;5095431;28;19947;-74
2023/02/06 01:47:45;;;;;;;;;;;;;;;1.03;100.00;98408.94;5084105;28;20348;-74
2023/02/06 01:50:11;;;;;;;;;;;;;;;0.99;100.00;98403.13;5094753;28;19960;-74
2023/02/06 01:52:37;;;;;;;;;;;;;;;0.99;100.00;98404.91;5095435;28;19952;-74
2023/02/06 01:55:03;;;;;;;;;;;;;;;0.96;100.00;98399.94;5094737;28;20051;-74
2023/02/06 01:57:29;;;;;;;;;;;;;;;0.95;100.00;98398.31;5094922;28;19946;-74
2023/02/06 01:59:58;;;;;;;;;;;;;;;0.93;100.00;98402.75;5094706;28;19956;-74
2023/02/06 02:02:25;;;;;;;;;;;;;;;0.91;100.00;98410.59;5094645;28;19975;-75
2023/02/06 02:04:51;;;;;;;;;;;;;;;0.91;100.00;98407.22;5094698;28;19943;-74
2023/02/06 02:07:25;;;;;;;;;;;;;;;0.92;100.00;98403.69;5094645;28;20007;-75
2023/02/06 02:09:51;;;;;;;;;;;;;;;0.92;100.00;98411.44;5094828;28;19943;-74
2023/02/06 02:12:17;;;;;;;;;;;;;;;0.91;100.00;98400.28;5094711;28;19950;-74
2023/02/06 02:14:44;;;;;;;;;;;;;;;0.88;100.00;98405.63;5094521;28;19969;-75
2023/02/06 02:17:29;;;;;;;;;;;;;;;0.85;100.00;98405.06;5094528;28;20321;-75
2023/02/06 02:20:00;;;;;;;;;;;;;;;0.82;100.00;98398.34;5094748;28;19951;-75
2023/02/06 02:22:49;;;;;;;;;;;;;;;0.84;100.00;98406.81;5076197;28;19950;-74
2023/02/06 02:25:33;;;;;;;;;;;;;;;0.85;100.00;98403.28;5094339;28;20326;-74
2023/02/06 02:28:02;;;;;;;;;;;;;;;0.85;100.00;98405.06;5094301;28;19944;-74
2023/02/06 02:30:46;;;;;;;;;;;;;;;0.82;100.00;98400.94;5094055;28;19947;-74
2023/02/06 02:33:27;;;;;;;;;;;;;;;0.84;100.00;98404.25;5094200;28;19969;-75
2023/02/06 02:36:03;;;;;;;;;;;;;;;0.86;100.00;98396.34;5094234;28;20454;-74
2023/02/06 02:38:29;;;;;;;;;;;;;;;0.86;100.00;98406.69;5094439;28;20411;-75
2023/02/06 02:41:14;;;;;;;;;;;;;;;0.84;100.00;98400.81;5093476;28;19958;-75
2023/02/06 02:43:44;;;;;;;;;;;;;;;0.81;100.00;98392.34;5093657;28;19972;-74
2023/02/06 02:46:09;;;;;;;;;;;;;;;0.81;100.00;98392.34;5093271;28;19961;-75
2023/02/06 02:48:40;;;;;;;;;;;;;;;0.80;100.00;98395.06;5093931;28;20429;-75
2023/02/06 02:51:07;;;;;;;;;;;;;;;0.81;100.00;98392.34;5093898;28;19954;-75
2023/02/06 02:53:33;;;;;;;;;;;;;;;0.84;100.00;98399.06;5094322;28;19963;-74
2023/02/06 02:55:59;;;;;;;;;;;;;;;0.84;100.00;98390.47;5075779;28;20382;-75
2023/02/06 02:58:29;;;;;;;;;;;;;;;0.83;100.00;98394.00;5094000;28;19943;-75
2023/02/06 03:01:02;;;;;;;;;;;;;;;0.83;100.00;98405.16;5093635;28;20320;-75
2023/02/06 03:03:31;;;;;;;;;;;;;;;0.83;100.00;98389.66;5075749;28;19954;-74
2023/02/06 03:06:12;;;;;;;;;;;;;;;0.81;100.00;98389.75;5093589;28;20292;-74
2023/02/06 03:08:47;;;;;;;;;;;;;;;0.78;100.00;98384.00;5093754;28;20320;-75
2023/02/06 03:11:18;;;;;;;;;;;;;;;0.77;100.00;98398.66;5093879;28;19944;-75
2023/02/06 03:14:02;;;;;;;;;;;;;;;0.75;100.00;98389.38;5075837;28;20365;-75
2023/02/06 03:16:34;;;;;;;;;;;;;;;0.74;100.00;98380.81;5093522;28;19950;-75
2023/02/06 03:19:03;;;;;;;;;;;;;;;0.73;100.00;98386.06;5093989;28;19953;-74
2023/02/06 03:21:31;;;;;;;;;;;;;;;0.70;100.00;98394.03;5093604;28;19963;-75
2023/02/06 03:24:00;;;;;;;;;;;;;;;0.72;100.00;98382.66;5093701;28;20347;-74
2023/02/06 03:26:28;;;;;;;;;;;;;;;0.69;100.00;98390.63;5093664;28;19959;-74
2023/02/06 03:28:57;;;;;;;;;;;;;;;0.68;100.00;98390.75;5093581;28;19948;-74
2023/02/06 03:31:25;;;;;;;;;;;;;;;0.67;100.00;98389.91;5093362;28;19947;-74
2023/02/06 03:33:54;;;;;;;;;;;;;;;0.68;100.00;98393.31;5093486;28;19957;-74
2023/02/06 03:36:20;;;;;;;;;;;;;;;0.69;100.00;98393.19;5093325;28;20398;-74
2023/02/06 03:38:48;;;;;;;;;;;;;;;0.71;100.00;98382.78;5093306;28;19950;-75
2023/02/06 03:41:15;;;;;;;;;;;;;;;0.73;100.00;98376.56;5093384;28;19954;-74
2023/02/06 03:43:43;;;;;;;;;;;;;;;0.75;100.00;98376.47;5093273;28;19968;-74
2023/02/06 03:46:11;;;;;;;;;;;;;;;0.77;100.00;98369.44;5093356;28;19955;-75
2023/02/06 03:48:46;;;;;;;;;;;;;;;0.81;100.00;98370.84;5093528;28;19969;-75
2023/02/06 03:51:18;;;;;;;;;;;;;;;0.84;100.00;98377.56;5093226;28;19961;-75
2023/02/06 03:53:44;;;;;;;;;;;;;;;0.83;100.00;98373.34;5093582;28;19964;-74
2023/02/06 03:56:14;;;;;;;;;;;;;;;0.82;100.00;98375.09;5093105;28;19949;-74
2023/02/06 03:58:40;;;;;;;;;;;;;;;0.81;100.00;98370.84;5096021;28;19953;-74
2023/02/06 04:01:06;;;;;;;;;;;;;;;0.79;100.00;98365.78;5097151;28;20153;-74
2023/02/06 04:03:32;;;;;;;;;;;;;;;0.78;100.00;98381.41;5097060;28;20418;-76
2023/02/06 04:05:58;;;;;;;;;;;;;;;0.78;100.00;98378.84;5097340;28;19945;-74
2023/02/06 04:08:24;;;;;;;;;;;;;;;0.76;100.00;98376.34;5097003;28;19949;-74
2023/02/06 04:10:50;;;;;;;;;;;;;;;0.76;100.00;98381.53;5096701;28;19956;-74
2023/02/06 04:13:16;;;;;;;;;;;;;;;0.76;100.00;98384.09;5096856;28;19953;-74
2023/02/06 04:15:42;;;;;;;;;;;;;;;0.80;100.00;98387.31;5096598;28;20438;-75
2023/02/06 04:18:08;;;;;;;;;;;;;;;0.78;100.00;98386.59;5097050;28;19986;-74
2023/02/06 04:20:39;;;;;;;;;;;;;;;0.75;100.00;98386.78;5096805;28;19953;-74
2023/02/06 04:23:06;;;;;;;;;;;;;;;0.70;100.00;98386.28;5096856;28;19949;-75
2023/02/06 04:25:32;;;;;;;;;;;;;;;0.65;100.00;98396.09;5096846;28;19947;-75
2023/02/06 04:27:58;;;;;;;;;;;;;;;0.60;100.00;98392.09;5096731;28;20427;-74
2023/02/06 04:30:24;;;;;;;;;;;;;;;0.63;100.00;98388.50;5096517;28;19963;-74
2023/02/06 04:32:50;;;;;;;;;;;;;;;0.67;100.00;98389.06;5095539;28;19955;-74
2023/02/06 04:35:16;;;;;;;;;;;;;;;0.66;100.00;98390.84;5096399;28;19962;-75
2023/02/06 04:37:42;;;;;;;;;;;;;;;0.65;100.00;98390.94;5096450;28;19957;-74
2023/02/06 04:40:08;;;;;;;;;;;;;;;0.64;100.00;98394.47;5096259;28;20069;-74
2023/02/06 04:42:34;;;;;;;;;;;;;;;0.60;100.00;98384.34;5095984;28;19976;-74
2023/02/06 04:45:00;;;;;;;;;;;;;;;0.57;100.00;98382.00;5096277;28;19958;-75
2023/02/06 04:47:26;;;;;;;;;;;;;;;0.57;100.00;98381.16;5096165;28;20397;-74
2023/02/06 04:49:52;;;;;;;;;;;;;;;0.61;100.00;98385.19;5095987;28;19976;-74
2023/02/06 04:52:18;;;;;;;;;;;;;;;0.63;100.00;98380.75;5096095;28;20467;-74
2023/02/06 04:54:43;;;;;;;;;;;;;;;0.64;100.00;98376.41;5096273;28;19959;-74
2023/02/06 04:57:09;;;;;;;;;;;;;;;0.62;100.00;98384.25;5095925;28;20016;-74
2023/02/06 04:59:35;;;;;;;;;;;;;;;0.62;100.00;98384.25;5095953;28;19956;-75
2023/02/06 05:02:01;;;;;;;;;;;;;;;0.65;100.00;98380.63;5096046;28;20020;-74
2023/02/06 05:04:27;;;;;;;;;;;;;;;0.65;100.00;98378.88;5095919;28;20396;-75
2023/02/06 05:06:53;;;;;;;;;;;;;;;0.64;100.00;98382.38;5096204;28;20044;-75
2023/02/06 05:09:18;;;;;;;;;;;;;;;0.63;100.00;98393.66;5095257;28;20007;-75
2023/02/06 05:11:44;;;;;;;;;;;;;;;0.60;100.00;98389.50;5095831;28;19948;-75
2023/02/06 05:14:10;;;;;;;;;;;;;;;0.59;100.00;98380.13;5095516;28;20343;-75
2023/02/06 05:16:37;;;;;;;;;;;;;;;0.56;100.00;98384.66;5095853;28;19962;-75
2023/02/06 05:19:02;;;;;;;;;;;;;;;0.59;100.00;98387.06;5095774;28;19953;-75
2023/02/06 05:21:28;;;;;;;;;;;;;;;0.61;100.00;98390.34;5095685;28;20368;-74
2023/02/06 05:23:54;;;;;;;;;;;;;;;0.61;100.00;98390.34;5095475;28;19955;-75
2023/02/06 05:26:20;;;;;;;;;;;;;;;0.60;100.00;98389.50;5095509;28;19980;-75
2023/02/06 05:28:46;;;;;;;;;;;;;;;0.62;100.00;98394.56;5095356;28;19947;-74
2023/02/06 05:31:18;;;;;;;;;;;;;;;0.62;100.00;98388.59;5095185;28;19952;-75
2023/02/06 05:33:50;;;;;;;;;;;;;;;0.64;100.00;98390.13;5095663;28;19954;-75
2023/02/06 05:36:16;;;;;;;;;;;;;;;0.63;100.00;98387.63;5095054;28;20336;-75
2023/02/06 05:38:42;;;;;;;;;;;;;;;0.64;100.00;98389.31;5095144;28;20326;-74
2023/02/06 05:41:08;;;;;;;;;;;;;;;0.65;100.00;98383.19;5095003;28;19949;-75
2023/02/06 05:43:34;;;;;;;;;;;;;;;0.67;100.00;98392.47;5094697;28;19974;-75
2023/02/06 05:46:01;;;;;;;;;;;;;;;0.71;100.00;98396.50;5095099;28;19959;-75
2023/02/06 05:48:29;;;;;;;;;;;;;;;0.68;100.00;98386.41;5095648;28;19947;-75
2023/02/06 05:50:56;;;;;;;;;;;;;;;0.66;100.00;98393.44;5094999;28;19947;-75
2023/02/06 05:53:22;;;;;;;;;;;;;;;0.67;100.00;98391.66;5094925;28;19953;-75
2023/02/06 05:55:48;;;;;;;;;;;;;;;0.68;100.00;98401.06;5094893;28;20021;-75
2023/02/06 05:58:13;;;;;;;;;;;;;;;0.68;100.00;98393.31;5094671;28;19951;-74
2023/02/06 06:00:39;;;;;;;;;;;;;;;0.66;100.00;98401.16;5095035;28;20446;-75
2023/02/06 06:03:05;;;;;;;;;;;;;;;0.63;100.00;98403.13;5077049;28;20009;-74
2023/02/06 06:05:31;;;;;;;;;;;;;;;0.59;100.00;98397.38;5095067;28;20003;-74
2023/02/06 06:07:57;;;;;;;;;;;;;;;0.59;100.00;98398.19;5094487;28;20161;-75
2023/02/06 06:10:23;;;;;;;;;;;;;;;0.59;100.00;98400.78;5093943;28;19952;-75
2023/02/06 06:12:49;;;;;;;;;;;;;;;0.58;100.00;98399.13;5094430;28;19962;-75
2023/02/06 06:15:15;;;;;;;;;;;;;;;0.56;100.00;98392.41;5094636;28;19970;-74
2023/02/06 06:17:40;;;;;;;;;;;;;;;0.54;100.00;98387.34;5094312;28;19950;-75
2023/02/06 06:20:07;;;;;;;;;;;;;;;0.51;100.00;98392.75;5076368;28;19944;-75
2023/02/06 06:22:32;;;;;;;;;;;;;;;0.48;100.00;98392.13;5093722;28;19948;-74
2023/02/06 06:24:58;;;;;;;;;;;;;;;0.45;100.00;98398.31;5094163;28;19955;-75
2023/02/06 06:27:24;;;;;;;;;;;;;;;0.44;100.00;98394.06;5094576;28;19994;-74
2023/02/06 06:29:50;;;;;;;;;;;;;;;0.46;100.00;98394.78;5094198;28;19947;-75
2023/02/06 06:32:16;;;;;;;;;;;;;;;0.44;100.00;98399.25;5075997;28;20018;-74
2023/02/06 06:34:42;;;;;;;;;;;;;;;0.43;100.00;98396.78;5094423;28;19970;-74
2023/02/06 06:37:08;;;;;;;;;;;;;;;0.42;100.00;98388.22;5094021;28;19955;-75
2023/02/06 06:39:33;;;;;;;;;;;;;;;0.43;100.00;98394.19;5075855;28;19950;-74
2023/02/06 06:41:59;;;;;;;;;;;;;;;0.41;100.00;98409.78;5094365;28;19972;-74
2023/02/06 06:44:25;;;;;;;;;;;;;;;0.40;100.00;98415.91;5093962;28;19988;-75
2023/02/06 06:46:51;;;;;;;;;;;;;;;0.38;100.00;98413.41;5093951;28;19980;-74
2023/02/06 06:49:17;;;;;;;;;;;;;;;0.38;100.00;98410.00;5094036;28;20301;-75
2023/02/06 06:51:43;;;;;;;;;;;;;;;0.39;100.00;98406.47;5093994;28;19956;-74
2023/02/06 06:54:08;;;;;;;;;;;;;;;0.42;100.00;98406.28;5093667;28;19961;-74
2023/02/06 06:56:34;;;;;;;;;;;;;;;0.45;100.00;98407.81;5093898;28;19956;-74
2023/02/06 06:59:00;;;;;;;;;;;;;;;0.43;100.00;98402.75;5094158;28;19952;-74
2023/02/06 07:01:26;;;;;;;;;;;;;;;0.44;100.00;98413.91;5075899;28;19974;-74
2023/02/06 07:03:52;;;;;;;;;;;;;;;0.46;100.00;98414.63;5075819;28;19944;-74
2023/02/06 07:06:18;;;;;;;;;;;;;;;0.43;100.00;98410.50;5093828;28;19956;-74
2023/02/06 07:08:44;;;;;;;;;;;;;;;0.42;100.00;98418.34;5093675;28;20033;-76
2023/02/06 07:11:11;;;;;;;;;;;;;;;0.43;100.00;98409.69;5093828;28;19944;-75
2023/02/06 07:13:37;;;;;;;;;;;;;;;0.47;100.00;98403.38;5093687;28;19957;-75
2023/02/06 07:16:02;;;;;;;;;;;;;;;0.51;100.00;98404.81;5083303;28;20398;-74
2023/02/06 07:18:28;;;;;;;;;;;;;;;0.52;100.00;98403.88;5093832;28;19956;-74
2023/02/06 07:20:54;;;;;;;;;;;;;;;0.48;100.00;98405.03;5093744;28;19976;-75
2023/02/06 07:23:20;;;;;;;;;;;;;;;0.47;100.00;98395.66;5093660;28;19984;-75
2023/02/06 07:25:46;;;;;;;;;;;;;;;0.46;100.00;98405.13;5093557;28;19959;-74
2023/02/06 07:28:12;;;;;;;;;;;;;;;0.48;100.00;98412.75;5093504;28;19966;-75
2023/02/06 07:30:38;;;;;;;;;;;;;;;0.50;100.00;98413.50;5093837;28;19955;-74
2023/02/06 07:33:04;;;;;;;;;;;;;;;0.53;100.00;98424.44;5095040;28;20058;-74
2023/02/06 07:35:30;;;;;;;;;;;;;;;0.54;100.00;98413.16;5097503;28;19955;-74
2023/02/06 07:37:56;;;;;;;;;;;;;;;0.54;100.00;98415.75;5097576;28;20429;-75
2023/02/06 07:40:22;;;;;;;;;;;;;;;0.54;100.00;98418.31;5097341;28;19942;-74
2023/02/06 07:42:48;;;;;;;;;;;;;;;0.58;100.00;98422.34;5097513;28;19983;-74
2023/02/06 07:45:14;;;;;;;;;;;;;;;0.62;100.00;98428.13;5097218;28;19950;-74
2023/02/06 07:47:41;;;;;;;;;;;;;;;0.63;100.00;98428.94;5097307;28;19956;-74
2023/02/06 07:50:07;;;;;;;;;;;;;;;0.63;100.00;98429.81;5097264;28;19947;-74
2023/02/06 07:52:33;;;;;;;;;;;;;;;0.62;100.00;98435.88;5097107;28;20400;-75
2023/02/06 07:54:58;;;;;;;;;;;;;;;0.62;100.00;98432.47;5063003;28;19969;-74
2023/02/06 07:57:24;;;;;;;;;;;;;;;0.63;100.00;98436.69;5096784;28;19955;-74
2023/02/06 07:59:50;;;;;;;;;;;;;;;0.60;100.00;98435.16;5097412;28;19948;-74
2023/02/06 08:02:16;;;;;;;;;;;;;;;0.56;100.00;98438.88;5096966;28;20039;-74
2023/02/06 08:04:42;;;;;;;;;;;;;;;0.49;100.00;98430.75;5079162;28;20000;-74
2023/02/06 08:07:13;;;;;;;;;;;;;;;0.45;100.00;98433.66;5097097;28;20059;-75
2023/02/06 08:09:40;;;;;;;;;;;;;;;0.41;100.00;98435.59;5096811;28;19974;-75
2023/02/06 08:12:06;;;;;;;;;;;;;;;0.37;100.00;98429.81;5096711;28;19958;-74
2023/02/06 08:14:32;;;;;;;;;;;;;;;0.36;100.00;98425.59;5096821;28;19973;-74
2023/02/06 08:16:58;;;;;;;;;;;;;;;0.35;100.00;98421.34;5096806;28;20048;-74
2023/02/06 08:19:24;;;;;;;;;;;;;;;0.38;100.00;98416.00;5096759;28;20354;-74
2023/02/06 08:21:50;;;;;;;;;;;;;;;0.40;100.00;98413.31;5096475;28;20302;-74
2023/02/06 08:24:16;;;;;;;;;;;;;;;0.41;100.00;98409.78;5096841;28;19952;-74
2023/02/06 08:26:42;;;;;;;;;;;;;;;0.43;100.00;98404.53;5096724;28;20449;-75
2023/02/06 08:29:09;;;;;;;;;;;;;;;0.44;100.00;98409.56;5096523;28;19962;-75
2023/02/06 08:31:38;;;;;;;;;;;;;;;0.47;100.00;98408.56;5096670;28;19950;-74
2023/02/06 08:34:05;;;;;;;;;;;;;;;0.51;100.00;98405.66;5096122;28;19944;-74
2023/02/06 08:36:32;;;;;;;;;;;;;;;0.55;100.00;98401.09;5096315;28;20462;-74
2023/02/06 08:38:58;;;;;;;;;;;;;;;0.59;100.00;98395.63;5096397;28;19945;-74
2023/02/06 08:41:26;;;;;;;;;;;;;;;0.66;100.00;98393.44;5096258;28;19946;-75
2023/02/06 08:43:53;;;;;;;;;;;;;;;0.74;100.00;98396.28;5095747;28;20052;-74
2023/02/06 08:46:20;;;;;;;;;;;;;;;0.79;100.00;98401.13;5096000;28;19958;-74
2023/02/06 08:48:46;;;;;;;;;;;;;;;0.84;100.00;98396.50;5096269;28;19943;-75
2023/02/06 08:51:12;;;;;;;;;;;;;;;0.89;100.00;98406.50;5096119;28;19956;-74
2023/02/06 08:53:38;;;;;;;;;;;;;;;0.92;100.00;98407.06;5096164;28;19953;-74
2023/02/06 08:56:05;;;;;;;;;;;;;;;0.95;100.00;98411.22;5095911;28;19966;-74
2023/02/06 08:58:32;;;;;;;;;;;;;;;0.99;100.00;98426.41;5096013;28;20421;-74
2023/02/06 09:00:58;;;;;;;;;;;;;;;1.03;100.00;98427.00;5096036;28;20293;-75
2023/02/06 09:03:26;;;;;;;;;;;;;;;1.04;100.00;98402.00;5096020;28;19953;-75
2023/02/06 09:05:58;;;;;;;;;;;;;;;1.02;100.00;98402.91;5095771;28;20304;-74
2023/02/06 09:08:24;;;;;;;;;;;;;;;0.96;100.00;98397.34;5095976;28;20327;-74
2023/02/06 09:10:49;;;;;;;;;;;;;;;0.91;100.00;98402.03;5095912;28;19944;-74
2023/02/06 09:13:15;;;;;;;;;;;;;;;0.87;100.00;98405.78;5077748;28;19953;-74
2023/02/06 09:15:42;;;;;;;;;;;;;;;0.85;100.00;98405.88;5095599;28;20421;-76
2023/02/06 09:18:08;;;;;;;;;;;;;;;0.86;100.00;98409.28;5095446;28;20971;-75
2023/02/06 09:20:34;;;;;;;;;;;;;;;0.88;100.00;98412.56;5095661;28;19973;-74
2023/02/06 09:22:59;;;;;;;;;;;;;;;0.85;100.00;98403.28;5095645;28;19951;-74
2023/02/06 09:25:25;;;;;;;;;;;;;;;0.83;100.00;98407.72;5095367;28;20419;-74
2023/02/06 09:27:51;;;;;;;;;;;;;;;0.83;100.00;98412.09;5095532;28;20447;-74
2023/02/06 09:30:17;;;;;;;;;;;;;;;0.79;100.00;98409.69;5094861;28;20061;-75
2023/02/06 09:32:43;;;;;;;;;;;;;;;0.80;100.00;98405.38;5095216;28;20004;-74
2023/02/06 09:35:09;;;;;;;;;;;;;;;0.79;100.00;98409.69;5095484;28;20005;-74
2023/02/06 09:37:35;;;;;;;;;;;;;;;0.77;100.00;98405.59;5095294;28;19960;-74
2023/02/06 09:40:01;;;;;;;;;;;;;;;0.76;100.00;98402.19;5095419;28;19958;-74
2023/02/06 09:42:37;;;;;;;;;;;;;;;0.76;100.00;98399.59;5095191;28;19975;-74
2023/02/06 09:45:15;;;;;;;;;;;;;;;0.69;100.00;98382.88;5094923;28;19977;-74
2023/02/06 09:47:50;;;;;;;;;;;;;;;0.67;100.00;98391.66;5094631;28;19951;-74
2023/02/06 09:50:16;;;;;;;;;;;;;;;0.66;100.00;98388.25;5094613;28;19940;-74
2023/02/06 09:52:41;;;;;;;;;;;;;;;0.70;100.00;98394.88;5110768;28;20002;-74
2023/02/06 09:55:08;;;;;;;;;;;;;;;0.71;100.00;98385.34;5094978;28;19967;-74
2023/02/06 09:57:37;;;;;;;;;;;;;;;0.72;100.00;98393.00;5094790;28;20413;-74
2023/02/06 10:00:10;;;;;;;;;;;;;;;0.77;100.00;98383.16;5094640;28;20424;-74
2023/02/06 10:02:54;;;;;;;;;;;;;;;0.83;100.00;98366.41;5094899;28;20389;-74
2023/02/06 10:05:36;;;;;;;;;;;;;;;0.84;100.00;98343.97;5094608;28;19949;-75
2023/02/06 10:08:11;;;;;;;;;;;;;;;0.78;100.00;98353.00;5076573;28;20419;-74
2023/02/06 10:10:37;;;;;;;;;;;;;;;0.70;97.92;98324.31;5095055;28;19953;-74
2023/02/06 10:13:12;;;;;;;;;;;;;;;0.68;100.00;98360.56;5094551;28;19970;-75
2023/02/06 10:15:46;;;;;;;;;;;;;;;0.74;100.00;98360.16;5086275;28;20318;-74
2023/02/06 10:18:23;;;;;;;;;;;;;;;0.80;100.00;98364.06;5094441;28;19941;-74
2023/02/06 10:20:51;;;;;;;;;;;;;;;0.86;100.00;98352.44;5094656;28;19946;-74
2023/02/06 10:23:17;;;;;;;;;;;;;;;0.89;100.00;98354.81;5094329;28;19940;-74
2023/02/06 10:25:48;;;;;;;;;;;;;;;0.94;100.00;98350.97;5094263;28;19952;-74
2023/02/06 10:28:14;;;;;;;;;;;;;;;0.86;99.04;98311.97;5093999;28;19946;-74
2023/02/06 10:30:46;;;;;;;;;;;;;;;0.77;100.00;98334.09;5076349;28;20321;-74
2023/02/06 10:33:14;;;;;;;;;;;;;;;0.81;100.00;98337.28;5094581;28;19952;-74
2023/02/06 10:35:43;;;;;;;;;;;;;;;0.85;100.00;98336.13;5094744;28;19969;-74
2023/02/06 10:38:18;;;;;;;;;;;;;;;0.89;100.00;98332.41;5094309;28;19955;-74
2023/02/06 10:40:48;;;;;;;;;;;;;;;0.93;100.00;98330.41;5093860;28;19958;-74
2023/02/06 10:43:23;;;;;;;;;;;;;;;0.97;100.00;98330.09;5093650;28;19969;-74
2023/02/06 10:46:07;;;;;;;;;;;;;;;0.99;100.00;98323.06;5094138;28;19956;-74
2023/02/06 10:48:45;;;;;;;;;;;;;;;1.02;100.00;98314.25;5093978;28;19952;-74
2023/02/06 10:51:14;;;;;;;;;;;;;;;1.03;100.00;98313.31;5094148;28;19965;-74
2023/02/06 10:53:55;;;;;;;;;;;;;;;1.06;100.00;98313.09;5093718;28;19955;-74
2023/02/06 10:56:24;;;;;;;;;;;;;;;1.09;100.00;98327.53;5093954;28;19969;-74
2023/02/06 10:58:50;;;;;;;;;;;;;;;1.07;100.00;98319.06;5080098;28;19962;-74
2023/02/06 11:01:17;;;;;;;;;;;;;;;1.09;100.00;98324.94;5093990;28;19947;-75
2023/02/06 11:03:50;;;;;;;;;;;;;;;1.09;100.00;98332.72;5093890;28;19977;-74
2023/02/06 11:06:19;;;;;;;;;;;;;;;1.07;100.00;98319.06;5093980;28;20328;-74
2023/02/06 11:08:46;;;;;;;;;;;;;;;1.05;100.00;98323.53;5093215;28;19957;-74
2023/02/06 11:11:28;;;;;;;;;;;;;;;1.02;100.00;98309.91;5093667;28;19953;-74
2023/02/06 11:14:04;;;;;;;;;;;;;;;0.99;100.00;98314.47;5093910;28;19961;-74
2023/02/06 11:16:31;;;;;;;;;;;;;;;0.99;100.00;98327.41;5093854;28;19965;-74
2023/02/06 11:19:00;;;;;;;;;;;;;;;0.97;100.00;98318.94;5093485;28;19963;-74
2023/02/06 11:21:44;;;;;;;;;;;;;;;0.94;100.00;98304.47;5093713;28;19948;-74
2023/02/06 11:24:12;;;;;;;;;;;;;;;0.94;100.00;98312.19;5093635;28;19947;-74
2023/02/06 11:26:42;;;;;;;;;;;;;;;0.96;100.00;98312.91;5093692;28;19947;-74
2023/02/06 11:29:22;;;;;;;;;;;;;;;0.96;100.00;98300.00;5093439;28;19952;-74
2023/02/06 11:31:57;;;;;;;;;;;;;;;0.98;100.00;98286.97;5093423;28;20332;-74
2023/02/06 11:34:29;;;;;;;;;;;;;;;0.94;100.00;98294.13;5093659;28;19956;-74
2023/02/06 11:37:18;;;;;;;;;;;;;;;0.95;100.00;98295.78;5093538;28;19959;-74
2023/02/06 11:39:43;;;;;;;;;;;;;;;0.93;100.00;98283.94;5091520;28;19948;-74
2023/02/06 11:42:12;;;;;;;;;;;;;;;0.90;100.00;98284.13;5093467;28;20497;-74
2023/02/06 11:44:39;;;;;;;;;;;;;;;0.91;100.00;98289.19;5093343;28;20325;-74
2023/02/06 11:47:24;;;;;;;;;;;;;;;0.90;100.00;98277.19;5093599;28;20425;-74
2023/02/06 11:49:50;;;;;;;;;;;;;;;0.90;100.00;98284.94;5078688;28;19944;-74
2023/02/06 11:52:26;;;;;;;;;;;;;;;0.90;100.00;98290.13;5093503;28;20403;-74
2023/02/06 11:54:53;;;;;;;;;;;;;;;0.90;100.00;98279.78;5093469;28;19950;-74
2023/02/06 11:57:20;;;;;;;;;;;;;;;0.91;100.00;98283.22;5093587;28;19950;-74
2023/02/06 11:59:56;;;;;;;;;;;;;;;0.92;100.00;98259.00;5093236;28;19957;-74
2023/02/06 12:02:28;;;;;;;;;;;;;;;0.88;100.00;98262.75;5093435;28;20401;-75
2023/02/06 12:05:00;;;;;;;;;;;;;;;0.84;100.00;98272.50;5074929;28;19950;-74
2023/02/06 12:07:27;;;;;;;;;;;;;;;0.85;100.00;98270.75;5093031;28;20406;-74
2023/02/06 12:09:53;;;;;;;;;;;;;;;0.85;98.52;98250.06;5093263;28;19944;-74
2023/02/06 12:12:24;;;;;;;;;;;;;;;0.86;98.43;98247.38;5093189;28;20025;-74
2023/02/06 12:14:53;;;;;;;;;;;;;;;0.88;98.76;98255.00;5093293;28;19966;-74
2023/02/06 12:17:34;;;;;;;;;;;;;;;0.88;96.45;98232.56;5093221;28;19966;-74
2023/02/06 12:20:03;;;;;;;;;;;;;;;0.90;97.95;98241.03;5094567;28;19951;-74
2023/02/06 12:22:33;;;;;;;;;;;;;;;0.95;98.68;98236.38;5096693;28;19965;-74
2023/02/06 12:25:01;;;;;;;;;;;;;;;0.98;99.69;98240.47;5096924;28;19958;-74
2023/02/06 12:27:34;;;;;;;;;;;;;;;1.03;97.89;98233.22;5096445;28;19974;-74
2023/02/06 12:30:06;;;;;;;;;;;;;;;1.01;98.41;98238.50;5096576;28;19959;-74
2023/02/06 12:32:39;;;;;;;;;;;;;;;1.00;98.41;98228.28;5096357;28;19956;-74
2023/02/06 12:35:13;;;;;;;;;;;;;;;0.97;96.83;98221.59;5096609;28;19952;-75
2023/02/06 12:37:55;;;;;;;;;;;;;;;0.93;97.86;98221.94;5096685;28;20297;-74
2023/02/06 12:40:37;;;;;;;;;;;;;;;0.90;96.10;98204.06;5086659;28;20306;-74
2023/02/06 12:43:14;;;;;;;;;;;;;;;0.89;97.23;98218.72;5096274;28;19983;-74
2023/02/06 12:45:43;;;;;;;;;;;;;;;0.87;97.96;98215.44;5096347;28;19962;-74
2023/02/06 12:48:18;;;;;;;;;;;;;;;0.87;99.48;98218.03;5096478;28;19951;-74
2023/02/06 12:50:47;;;;;;;;;;;;;;;0.86;97.82;98210.38;5096240;28;19944;-74
2023/02/06 12:53:17;;;;;;;;;;;;;;;0.88;98.66;98219.66;5082804;28;19950;-74